createdAt,value
2022-09-30T00:01:54.311Z,7.50
2022-09-30T00:04:24.688Z,7.03
2022-09-30T00:06:54.160Z,7.93
2022-09-30T00:09:22.869Z,7.20
2022-09-30T00:11:51.477Z,9.30
2022-09-30T00:14:22.331Z,6.87
2022-09-30T00:16:50.402Z,7.13
2022-09-30T00:19:18.535Z,6.93
2022-09-30T00:21:46.378Z,6.73
2022-09-30T00:24:14.248Z,6.43
2022-09-30T00:26:42.085Z,6.17
2022-09-30T00:29:10.967Z,6.80
2022-09-30T00:31:39.547Z,6.90
2022-09-30T00:34:08.005Z,8.23
2022-09-30T00:36:43.700Z,5.87
2022-09-30T00:39:16.517Z,6.53
2022-09-30T00:41:47.890Z,6.13
2022-09-30T00:44:43.931Z,6.00
2022-09-30T00:47:45.425Z,5.83
2022-09-30T00:50:22.791Z,6.30
2022-09-30T00:53:20.636Z,7.07
2022-09-30T00:56:07.616Z,6.90
2022-09-30T00:59:02.607Z,5.73
2022-09-30T01:01:32.100Z,6.60
2022-09-30T01:04:06.194Z,6.20
2022-09-30T01:06:33.985Z,6.67
2022-09-30T01:09:01.986Z,7.73
2022-09-30T01:11:30.158Z,7.53
2022-09-30T01:14:03.202Z,7.37
2022-09-30T01:17:00.665Z,7.93
2022-09-30T01:19:39.980Z,8.00
2022-09-30T01:22:16.719Z,6.83
2022-09-30T01:25:07.019Z,8.10
2022-09-30T01:27:55.736Z,8.17
2022-09-30T01:30:57.675Z,6.90
2022-09-30T01:33:40.659Z,7.40
2022-09-30T01:36:52.144Z,7.47
2022-09-30T01:39:37.825Z,7.73
2022-09-30T01:42:40.831Z,8.83
2022-09-30T01:46:03.344Z,8.57
2022-09-30T01:48:53.628Z,8.17
2022-09-30T01:51:45.917Z,9.70
2022-09-30T01:55:03.516Z,9.80
2022-09-30T01:58:09.689Z,12.90
2022-09-30T02:00:42.340Z,9.23
2022-09-30T02:03:24.467Z,7.87
2022-09-30T02:06:06.738Z,7.23
2022-09-30T02:09:03.652Z,7.03
2022-09-30T02:11:38.469Z,6.90
2022-09-30T02:14:18.086Z,11.13
2022-09-30T02:17:39.735Z,9.23
2022-09-30T02:20:22.386Z,15.23
2022-09-30T02:23:04.021Z,19.57
2022-09-30T02:25:41.012Z,14.37
2022-09-30T02:28:17.549Z,12.23
2022-09-30T02:30:50.688Z,11.07
2022-09-30T02:33:32.458Z,10.57
2022-09-30T02:36:08.133Z,9.30
2022-09-30T02:38:44.457Z,8.53
2022-09-30T02:41:23.825Z,8.43
2022-09-30T02:43:53.693Z,7.90
2022-09-30T02:46:32.200Z,9.47
2022-09-30T02:49:26.237Z,8.67
2022-09-30T02:52:02.722Z,7.55
2022-09-30T02:55:25.640Z,8.13
2022-09-30T02:58:11.197Z,8.20
2022-09-30T03:00:39.715Z,8.93
2022-09-30T03:03:38.995Z,9.33
2022-09-30T03:06:07.578Z,8.10
2022-09-30T03:08:35.716Z,9.03
2022-09-30T03:11:05.291Z,8.17
2022-09-30T03:14:00.159Z,8.90
2022-09-30T03:17:05.436Z,7.63
2022-09-30T03:20:08.443Z,7.80
2022-09-30T03:22:45.365Z,7.73
2022-09-30T03:25:16.492Z,8.07
2022-09-30T03:28:16.411Z,8.80
2022-09-30T03:31:37.847Z,7.77
2022-09-30T03:34:43.847Z,9.50
2022-09-30T03:38:16.285Z,8.33
2022-09-30T03:40:53.857Z,7.93
2022-09-30T03:43:41.626Z,8.03
2022-09-30T03:46:27.528Z,8.43
2022-09-30T03:49:01.378Z,8.93
2022-09-30T03:51:30.119Z,9.88
2022-09-30T03:53:59.209Z,9.03
2022-09-30T03:56:30.093Z,8.07
2022-09-30T03:58:58.850Z,10.47
2022-09-30T04:01:27.163Z,9.03
2022-09-30T04:03:55.065Z,10.43
2022-09-30T04:06:25.203Z,10.63
2022-09-30T04:08:54.137Z,11.57
2022-09-30T04:11:21.951Z,9.37
2022-09-30T04:13:49.780Z,11.87
2022-09-30T04:16:17.603Z,12.80
2022-09-30T04:18:45.396Z,10.67
2022-09-30T04:21:15.152Z,12.13
2022-09-30T04:23:43.546Z,11.97
2022-09-30T04:26:15.241Z,11.00
2022-09-30T04:28:43.912Z,10.53
2022-09-30T04:31:13.880Z,9.87
2022-09-30T04:33:41.697Z,11.27
2022-09-30T04:36:10.473Z,10.23
2022-09-30T04:38:38.351Z,13.37
2022-09-30T04:41:07.687Z,9.97
2022-09-30T04:43:35.490Z,12.97
2022-09-30T04:46:03.365Z,18.13
2022-09-30T04:48:31.519Z,12.50
2022-09-30T04:51:02.397Z,11.47
2022-09-30T04:53:30.397Z,10.23
2022-09-30T04:56:01.668Z,11.77
2022-09-30T04:58:34.703Z,9.93
2022-09-30T05:01:11.025Z,11.27
2022-09-30T05:03:39.915Z,14.17
2022-09-30T05:06:08.224Z,15.30
2022-09-30T05:08:36.439Z,11.80
2022-09-30T05:11:12.347Z,9.33
2022-09-30T05:13:41.221Z,11.33
2022-09-30T05:16:10.471Z,10.20
2022-09-30T05:18:45.657Z,11.53
2022-09-30T05:21:20.635Z,26.03
2022-09-30T05:23:48.905Z,16.70
2022-09-30T05:26:16.852Z,19.37
2022-09-30T05:28:44.824Z,19.30
2022-09-30T05:31:13.637Z,11.80
2022-09-30T05:33:42.068Z,10.93
2022-09-30T05:36:14.671Z,10.23
2022-09-30T05:38:42.752Z,10.87
2022-09-30T05:41:15.021Z,8.87
2022-09-30T05:43:48.003Z,8.83
2022-09-30T05:46:20.448Z,11.85
2022-09-30T05:48:48.359Z,10.87
2022-09-30T05:51:16.137Z,11.90
2022-09-30T05:53:44.890Z,10.67
2022-09-30T05:56:12.799Z,10.37
2022-09-30T05:58:42.133Z,11.27
2022-09-30T06:01:14.460Z,11.73
2022-09-30T06:03:46.928Z,10.90
2022-09-30T06:06:15.669Z,12.17
2022-09-30T06:08:44.562Z,11.23
2022-09-30T06:11:18.092Z,13.60
2022-09-30T06:13:47.590Z,13.27
2022-09-30T06:16:18.414Z,11.50
2022-09-30T06:18:46.694Z,13.67
2022-09-30T06:21:17.002Z,14.13
2022-09-30T06:23:45.253Z,15.10
2022-09-30T06:26:14.495Z,17.20
2022-09-30T06:28:43.035Z,15.50
2022-09-30T06:31:11.650Z,18.27
2022-09-30T06:33:39.687Z,16.23
2022-09-30T06:36:07.591Z,18.00
2022-09-30T06:38:37.257Z,17.90
2022-09-30T06:41:06.145Z,14.30
2022-09-30T06:43:41.422Z,13.90
2022-09-30T06:46:17.638Z,14.40
2022-09-30T06:49:06.148Z,12.13
2022-09-30T06:51:38.799Z,14.73
2022-09-30T06:54:07.972Z,15.27
2022-09-30T06:56:37.017Z,13.43
2022-09-30T06:59:04.844Z,14.90
2022-09-30T07:01:32.677Z,14.57
2022-09-30T07:04:02.819Z,14.73
2022-09-30T07:06:31.297Z,14.10
2022-09-30T07:08:59.097Z,13.87
2022-09-30T07:11:26.934Z,13.87
2022-09-30T07:13:55.518Z,13.10
2022-09-30T07:16:25.769Z,12.87
2022-09-30T07:18:54.421Z,13.50
2022-09-30T07:21:22.309Z,12.10
2022-09-30T07:23:52.820Z,11.40
2022-09-30T07:26:24.219Z,11.00
2022-09-30T07:28:52.821Z,11.17
2022-09-30T07:31:33.473Z,10.47
2022-09-30T07:34:07.292Z,11.47
2022-09-30T07:36:37.990Z,12.52
2022-09-30T07:39:09.952Z,10.53
2022-09-30T07:41:40.167Z,10.53
2022-09-30T07:44:14.616Z,12.00
2022-09-30T07:46:44.827Z,19.97
2022-09-30T07:49:25.485Z,17.97
2022-09-30T07:51:58.790Z,14.23
2022-09-30T07:54:31.055Z,13.65
2022-09-30T07:57:16.715Z,11.30
2022-09-30T07:59:44.670Z,10.43
2022-09-30T08:02:18.669Z,11.27
2022-09-30T08:04:47.270Z,10.27
2022-09-30T08:07:18.099Z,11.07
2022-09-30T08:09:46.005Z,9.47
2022-09-30T08:12:13.859Z,10.77
2022-09-30T08:14:41.806Z,10.23
2022-09-30T08:17:09.641Z,9.90
2022-09-30T08:19:38.285Z,9.73
2022-09-30T08:22:06.615Z,10.13
2022-09-30T08:24:34.734Z,11.97
2022-09-30T08:27:02.616Z,11.10
2022-09-30T08:32:18.923Z,11.57
2022-09-30T08:34:46.818Z,9.87
2022-09-30T08:37:14.589Z,11.45
2022-09-30T08:39:43.529Z,10.38
2022-09-30T08:42:36.623Z,10.07
2022-09-30T08:46:07.580Z,10.00
2022-09-30T08:48:50.262Z,10.03
2022-09-30T08:51:45.370Z,11.00
2022-09-30T08:54:22.857Z,10.55
2022-09-30T08:56:51.349Z,10.20
2022-09-30T08:59:30.041Z,10.18
2022-09-30T09:02:21.921Z,11.77
2022-09-30T09:04:54.644Z,11.27
2022-09-30T09:07:33.436Z,11.75
2022-09-30T09:10:24.183Z,10.87
2022-09-30T09:13:09.607Z,11.32
2022-09-30T09:16:18.637Z,11.18
2022-09-30T09:19:11.870Z,12.70
2022-09-30T09:22:01.883Z,10.68
2022-09-30T09:24:40.986Z,10.95
2022-09-30T09:27:54.825Z,11.30
2022-09-30T09:30:25.449Z,11.68
2022-09-30T09:32:58.273Z,11.55
2022-09-30T09:35:55.570Z,11.07
2022-09-30T09:38:56.015Z,10.50
2022-09-30T09:41:33.831Z,10.38
2022-09-30T09:44:19.514Z,11.95
2022-09-30T09:47:05.751Z,11.30
2022-09-30T09:49:37.153Z,10.73
2022-09-30T09:52:13.907Z,10.52
2022-09-30T09:54:52.673Z,10.60
2022-09-30T09:57:24.981Z,11.88
2022-09-30T10:02:31.732Z,10.40
2022-09-30T10:05:03.996Z,13.18
2022-09-30T10:07:34.015Z,11.50
2022-09-30T10:10:23.078Z,12.07
2022-09-30T10:12:51.858Z,12.63
2022-09-30T10:15:26.428Z,11.30
2022-09-30T10:17:59.207Z,11.07
2022-09-30T10:20:36.495Z,9.13
2022-09-30T10:23:31.902Z,8.90
2022-09-30T10:29:05.139Z,10.00
2022-09-30T10:31:42.395Z,9.57
2022-09-30T10:34:30.691Z,7.80
2022-09-30T10:37:03.084Z,7.43
2022-09-30T10:39:36.297Z,7.85
2022-09-30T10:42:07.454Z,7.10
2022-09-30T10:44:56.541Z,7.32
2022-09-30T10:47:27.286Z,6.80
2022-09-30T10:50:05.442Z,7.43
2022-09-30T10:52:56.339Z,7.63
2022-09-30T10:55:34.739Z,7.47
2022-09-30T10:58:25.390Z,7.47
2022-09-30T11:01:19.722Z,7.78
2022-09-30T11:04:24.661Z,9.32
2022-09-30T11:07:01.621Z,9.77
2022-09-30T11:09:46.201Z,7.93
2022-09-30T11:12:45.270Z,7.68
2022-09-30T11:15:24.539Z,7.15
2022-09-30T11:18:05.843Z,7.75
2022-09-30T11:20:54.421Z,7.00
2022-09-30T11:23:36.883Z,7.07
2022-09-30T11:26:40.332Z,8.48
2022-09-30T11:29:44.124Z,7.22
2022-09-30T11:32:55.732Z,6.00
2022-09-30T11:36:01.828Z,4.78
2022-09-30T11:38:48.566Z,5.57
2022-09-30T11:41:38.888Z,5.72
2022-09-30T11:44:51.650Z,6.57
2022-09-30T11:47:26.136Z,5.43
2022-09-30T11:50:08.797Z,5.63
2022-09-30T11:53:18.569Z,6.30
2022-09-30T11:56:35.020Z,6.78
2022-09-30T11:59:13.540Z,5.13
2022-09-30T12:01:46.183Z,5.68
2022-09-30T12:04:29.467Z,5.38
2022-09-30T12:07:09.025Z,4.57
2022-09-30T12:09:48.626Z,5.90
2022-09-30T12:12:19.242Z,6.50
2022-09-30T12:15:01.148Z,6.43
2022-09-30T12:17:44.141Z,5.60
2022-09-30T12:20:53.811Z,4.87
2022-09-30T12:23:55.117Z,4.78
2022-09-30T12:26:22.938Z,4.30
2022-09-30T12:29:32.502Z,5.25
2022-09-30T12:32:25.148Z,6.43
2022-09-30T12:35:43.876Z,4.70
2022-09-30T12:38:51.163Z,5.00
2022-09-30T12:41:49.247Z,5.45
2022-09-30T12:45:14.697Z,4.85
2022-09-30T12:47:57.442Z,4.82
2022-09-30T12:50:42.429Z,5.72
2022-09-30T12:53:39.648Z,5.90
2022-09-30T12:56:13.353Z,4.72
2022-09-30T13:01:23.485Z,5.40
2022-09-30T13:04:00.085Z,5.63
2022-09-30T13:06:47.701Z,5.05
2022-09-30T13:09:22.819Z,4.32
2022-09-30T13:11:56.811Z,4.60
2022-09-30T13:14:43.398Z,4.28
2022-09-30T13:17:11.431Z,4.05
2022-09-30T13:19:47.696Z,4.05
2022-09-30T13:22:21.316Z,4.28
2022-09-30T13:27:50.018Z,4.35
2022-09-30T13:30:18.150Z,3.45
2022-09-30T13:33:02.441Z,4.13
2022-09-30T13:35:33.970Z,3.42
2022-09-30T13:38:14.646Z,2.90
2022-09-30T13:41:02.772Z,3.45
2022-09-30T13:44:03.362Z,3.92
2022-09-30T13:46:59.256Z,3.65
2022-09-30T13:49:43.763Z,3.72
2022-09-30T13:52:28.972Z,3.80
2022-09-30T13:55:04.032Z,3.08
2022-09-30T13:58:03.330Z,3.30
2022-09-30T14:01:03.080Z,3.40
2022-09-30T14:04:04.122Z,3.60
2022-09-30T14:07:10.603Z,3.38
2022-09-30T14:10:29.090Z,5.20
2022-09-30T14:13:27.853Z,9.77
2022-09-30T14:16:48.136Z,19.05
2022-09-30T14:19:46.271Z,7.05
2022-09-30T14:22:15.702Z,4.68
2022-09-30T14:24:43.722Z,7.80
2022-09-30T14:27:20.243Z,6.15
2022-09-30T14:30:02.316Z,4.10
2022-09-30T14:32:54.165Z,4.40
2022-09-30T14:35:31.949Z,5.90
2022-09-30T14:38:28.000Z,4.00
2022-09-30T14:41:14.475Z,3.22
2022-09-30T14:43:46.131Z,5.47
2022-09-30T14:46:26.754Z,4.18
2022-09-30T14:48:59.100Z,3.83
2022-09-30T14:51:29.331Z,4.20
2022-09-30T14:54:02.287Z,4.50
2022-09-30T14:56:35.473Z,4.75
2022-09-30T14:59:34.700Z,4.70
2022-09-30T15:02:20.397Z,3.58
2022-09-30T15:04:56.988Z,3.80
2022-09-30T15:07:27.100Z,5.20
2022-09-30T15:10:01.164Z,3.17
2022-09-30T15:12:29.040Z,3.63
2022-09-30T15:14:59.904Z,4.10
2022-09-30T15:17:37.800Z,3.58
2022-09-30T15:20:31.203Z,35.85
2022-09-30T15:23:03.694Z,33.03
2022-09-30T15:25:31.899Z,16.92
2022-09-30T15:28:00.063Z,7.85
2022-09-30T15:30:29.540Z,7.25
2022-09-30T15:33:04.528Z,6.32
2022-09-30T15:35:36.031Z,5.95
2022-09-30T15:38:26.829Z,4.57
2022-09-30T15:41:05.120Z,4.43
2022-09-30T15:43:37.058Z,4.05
2022-09-30T15:46:25.223Z,9.88
2022-09-30T15:48:59.101Z,3.83
2022-09-30T15:51:39.449Z,3.22
2022-09-30T15:54:16.004Z,3.10
2022-09-30T15:56:44.490Z,3.35
2022-09-30T15:59:14.729Z,4.18
2022-09-30T16:01:46.736Z,4.60
2022-09-30T16:04:17.559Z,7.45
2022-09-30T16:06:53.767Z,6.05
2022-09-30T16:09:34.025Z,4.38
2022-09-30T16:12:13.961Z,6.28
2022-09-30T16:15:06.443Z,7.60
2022-09-30T16:17:39.258Z,4.97
2022-09-30T16:20:14.744Z,8.60
2022-09-30T16:22:42.422Z,7.40
2022-09-30T16:25:31.776Z,11.32
2022-09-30T16:28:14.615Z,14.40
2022-09-30T16:30:49.536Z,21.75
2022-09-30T16:33:17.786Z,17.30
2022-09-30T16:35:47.496Z,12.25
2022-09-30T16:38:18.185Z,14.35
2022-09-30T16:40:46.061Z,20.83
2022-09-30T16:43:13.921Z,34.72
2022-09-30T16:45:42.523Z,61.95
2022-09-30T16:48:18.650Z,81.47
2022-09-30T16:50:56.477Z,39.97
2022-09-30T16:53:24.312Z,41.17
2022-09-30T16:55:52.294Z,40.03
2022-09-30T16:58:20.122Z,39.40
2022-09-30T17:00:48.031Z,37.08
2022-09-30T17:03:18.412Z,29.27
2022-09-30T17:05:53.076Z,25.08
2022-09-30T17:08:23.937Z,19.38
2022-09-30T17:10:51.817Z,20.90
2022-09-30T17:13:19.811Z,15.73
2022-09-30T17:15:50.747Z,9.50
2022-09-30T17:18:19.683Z,7.05
2022-09-30T17:20:52.801Z,5.90
2022-09-30T17:23:22.884Z,5.13
2022-09-30T17:25:51.529Z,7.32
2022-09-30T17:28:19.381Z,7.63
2022-09-30T17:30:49.335Z,7.28
2022-09-30T17:33:19.908Z,7.13
2022-09-30T17:36:02.322Z,6.90
2022-09-30T17:38:30.631Z,8.68
2022-09-30T17:41:17.829Z,9.60
2022-09-30T17:43:45.927Z,6.47
2022-09-30T17:46:19.300Z,8.05
2022-09-30T17:48:47.710Z,9.38
2022-09-30T17:51:16.796Z,10.43
2022-09-30T17:53:45.427Z,9.65
2022-09-30T17:56:20.299Z,12.15
2022-09-30T17:58:50.867Z,12.20
2022-09-30T18:01:21.393Z,13.75
2022-09-30T18:03:53.121Z,10.40
2022-09-30T18:06:21.664Z,8.82
2022-09-30T18:08:55.889Z,6.07
2022-09-30T18:11:26.256Z,6.72
2022-09-30T18:13:59.743Z,6.95
2022-09-30T18:16:30.919Z,8.65
2022-09-30T18:19:00.844Z,8.18
2022-09-30T18:21:30.039Z,7.70
2022-09-30T18:23:59.060Z,6.25
2022-09-30T18:26:33.218Z,7.28
2022-09-30T18:29:03.726Z,6.93
2022-09-30T18:31:37.486Z,7.38
2022-09-30T18:34:06.990Z,7.90
2022-09-30T18:36:37.413Z,9.85
2022-09-30T18:39:05.405Z,8.80
2022-09-30T18:41:35.749Z,9.32
2022-09-30T18:44:03.840Z,8.98
2022-09-30T18:46:32.148Z,7.80
2022-09-30T18:48:59.977Z,7.07
2022-09-30T18:51:28.616Z,7.22
2022-09-30T18:53:59.884Z,6.65
2022-09-30T18:56:31.958Z,7.25
2022-09-30T18:59:04.644Z,7.85
2022-09-30T19:01:34.111Z,8.07
2022-09-30T19:04:03.484Z,8.00
2022-09-30T19:06:31.676Z,7.45
2022-09-30T19:08:59.484Z,7.43
2022-09-30T19:11:30.337Z,7.18
2022-09-30T19:14:01.391Z,6.77
2022-09-30T19:16:37.921Z,8.23
2022-09-30T19:19:10.490Z,7.75
2022-09-30T19:21:39.698Z,9.00
2022-09-30T19:24:09.420Z,8.30
2022-09-30T19:26:39.398Z,8.05
2022-09-30T19:29:09.715Z,7.43
2022-09-30T19:31:38.095Z,8.75
2022-09-30T19:34:06.447Z,8.13
2022-09-30T19:36:46.037Z,7.17
2022-09-30T19:39:17.094Z,8.45
2022-09-30T19:41:46.323Z,9.37
2022-09-30T19:44:18.835Z,9.80
2022-09-30T19:46:55.653Z,8.83
2022-09-30T19:49:24.045Z,9.60
2022-09-30T19:51:52.873Z,8.55
2022-09-30T19:54:35.938Z,8.20
2022-09-30T19:57:05.939Z,7.90
2022-09-30T19:59:34.229Z,7.37
2022-09-30T20:02:02.465Z,8.17
2022-09-30T20:04:30.264Z,8.23
2022-09-30T20:06:58.027Z,7.63
2022-09-30T20:09:25.837Z,6.67
2022-09-30T20:11:53.578Z,5.83
2022-09-30T20:14:39.889Z,6.47
2022-09-30T20:17:07.770Z,5.87
2022-09-30T20:19:35.596Z,6.00
2022-09-30T20:22:04.761Z,6.57
2022-09-30T20:24:33.126Z,5.97
2022-09-30T20:27:00.874Z,6.00
2022-09-30T20:29:28.800Z,6.33
2022-09-30T20:31:57.224Z,9.03
2022-09-30T20:34:25.104Z,8.37
2022-09-30T20:36:52.841Z,7.60
2022-09-30T20:39:21.262Z,6.90
2022-09-30T20:41:50.708Z,5.63
2022-09-30T20:44:19.508Z,5.13
2022-09-30T20:46:47.277Z,4.93
2022-09-30T20:49:15.062Z,5.57
2022-09-30T20:51:42.911Z,5.13
2022-09-30T20:54:10.893Z,5.43
2022-09-30T20:57:02.763Z,5.23
2022-09-30T20:59:26.449Z,6.03
2022-09-30T21:01:54.255Z,5.40
2022-09-30T21:04:22.072Z,5.10
2022-09-30T21:06:49.851Z,5.13
2022-09-30T21:09:17.714Z,5.27
2022-09-30T21:11:45.434Z,5.03
2022-09-30T21:14:18.114Z,6.83
2022-09-30T21:16:46.083Z,6.33
2022-09-30T21:19:13.962Z,4.93
2022-09-30T21:21:41.782Z,5.37
2022-09-30T21:24:09.941Z,5.07
2022-09-30T21:26:37.739Z,5.37
2022-09-30T21:29:05.685Z,4.50
2022-09-30T21:31:35.312Z,4.93
2022-09-30T21:34:04.046Z,6.00
2022-09-30T21:36:32.212Z,5.87
2022-09-30T21:39:02.385Z,4.97
2022-09-30T21:41:32.544Z,4.80
2022-09-30T21:44:01.457Z,4.33
2022-09-30T21:46:30.281Z,5.63
2022-09-30T21:49:16.025Z,5.20
2022-09-30T21:51:43.928Z,4.77
2022-09-30T21:54:13.759Z,6.03
2022-09-30T21:56:43.060Z,4.90
2022-09-30T21:59:12.838Z,5.10
2022-09-30T22:01:40.979Z,5.03
2022-09-30T22:04:09.284Z,5.63
2022-09-30T22:06:37.096Z,5.83
2022-09-30T22:09:05.310Z,5.77
2022-09-30T22:11:33.536Z,6.80
2022-09-30T22:14:01.867Z,7.00
2022-09-30T22:16:36.845Z,6.57
2022-09-30T22:19:07.424Z,7.30
2022-09-30T22:21:37.664Z,5.83
2022-09-30T22:24:08.053Z,5.30
2022-09-30T22:26:37.152Z,6.67
2022-09-30T22:29:11.329Z,7.37
2022-09-30T22:31:39.681Z,7.13
2022-09-30T22:34:29.123Z,7.90
2022-09-30T22:37:15.637Z,5.47
2022-09-30T22:39:43.555Z,5.03
2022-09-30T22:42:11.312Z,4.10
2022-09-30T22:44:39.287Z,4.37
2022-09-30T22:47:09.870Z,3.70
2022-09-30T22:49:37.638Z,3.97
2022-09-30T22:52:06.724Z,3.70
2022-09-30T22:54:36.693Z,3.90
2022-09-30T22:57:07.832Z,3.80
2022-09-30T22:59:39.147Z,3.67
2022-09-30T23:02:07.009Z,4.43
2022-09-30T23:04:34.801Z,3.60
2022-09-30T23:07:02.591Z,4.37
2022-09-30T23:09:31.207Z,4.97
2022-09-30T23:11:59.240Z,4.60
2022-09-30T23:14:27.018Z,4.00
2022-09-30T23:16:54.848Z,4.63
2022-09-30T23:19:22.716Z,5.00
2022-09-30T23:21:50.466Z,4.77
2022-09-30T23:24:18.339Z,5.90
2022-09-30T23:26:46.157Z,5.80
2022-09-30T23:29:15.958Z,5.03
2022-09-30T23:31:43.838Z,4.97
2022-09-30T23:34:12.096Z,4.70
2022-09-30T23:36:40.467Z,4.13
2022-09-30T23:39:18.546Z,4.97
2022-09-30T23:41:47.902Z,4.97
2022-09-30T23:44:18.999Z,4.63
2022-09-30T23:47:06.624Z,4.63
2022-09-30T23:49:38.482Z,4.70
2022-09-30T23:52:12.574Z,4.83
2022-09-30T23:54:42.572Z,5.03
2022-09-30T23:57:11.394Z,4.37
2022-09-30T23:59:39.440Z,4.27
